sensor_id;sensor_type;location;lat;lon;timestamp;P1;durP1;ratioP1;P2;durP2;ratioP2
20896;SDS011;10608;42.600;23.398;2023-03-01T00:00:37;32.87;;;31.57;;
20896;SDS011;10608;42.600;23.398;2023-03-01T00:03:02;30.47;;;29.27;;
20896;SDS011;10608;42.600;23.398;2023-03-01T00:05:27;28.90;;;27.70;;
20896;SDS011;10608;42.600;23.398;2023-03-01T00:07:53;29.67;;;28.47;;
20896;SDS011;10608;42.600;23.398;2023-03-01T00:10:18;32.17;;;30.87;;
20896;SDS011;10608;42.600;23.398;2023-03-01T00:12:43;32.40;;;31.10;;
20896;SDS011;10608;42.600;23.398;2023-03-01T00:15:09;31.13;;;29.83;;
20896;SDS011;10608;42.600;23.398;2023-03-01T00:17:35;31.27;;;29.97;;
20896;SDS011;10608;42.600;23.398;2023-03-01T00:20:00;29.83;;;28.63;;
20896;SDS011;10608;42.600;23.398;2023-03-01T00:22:26;29.80;;;28.60;;
20896;SDS011;10608;42.600;23.398;2023-03-01T00:24:53;30.40;;;29.10;;
20896;SDS011;10608;42.600;23.398;2023-03-01T00:27:18;31.87;;;30.57;;
20896;SDS011;10608;42.600;23.398;2023-03-01T00:29:43;33.83;;;32.43;;
20896;SDS011;10608;42.600;23.398;2023-03-01T00:32:08;41.83;;;40.13;;
20896;SDS011;10608;42.600;23.398;2023-03-01T00:34:34;51.20;;;49.10;;
20896;SDS011;10608;42.600;23.398;2023-03-01T00:36:59;49.47;;;47.37;;
20896;SDS011;10608;42.600;23.398;2023-03-01T00:39:30;46.80;;;44.83;;
20896;SDS011;10608;42.600;23.398;2023-03-01T00:41:55;45.17;;;43.27;;
20896;SDS011;10608;42.600;23.398;2023-03-01T00:44:21;46.13;;;44.23;;
20896;SDS011;10608;42.600;23.398;2023-03-01T00:46:46;49.90;;;47.80;;
20896;SDS011;10608;42.600;23.398;2023-03-01T00:49:12;43.77;;;41.93;;
20896;SDS011;10608;42.600;23.398;2023-03-01T00:51:37;42.37;;;40.60;;
20896;SDS011;10608;42.600;23.398;2023-03-01T00:54:04;34.77;;;33.33;;
20896;SDS011;10608;42.600;23.398;2023-03-01T00:56:29;38.00;;;36.40;;
20896;SDS011;10608;42.600;23.398;2023-03-01T00:58:55;41.83;;;40.10;;
20896;SDS011;10608;42.600;23.398;2023-03-01T01:01:21;36.83;;;35.30;;
20896;SDS011;10608;42.600;23.398;2023-03-01T01:03:48;43.50;;;41.70;;
20896;SDS011;10608;42.600;23.398;2023-03-01T01:06:35;47.93;;;45.93;;
20896;SDS011;10608;42.600;23.398;2023-03-01T01:08:59;30.50;;;29.27;;
20896;SDS011;10608;42.600;23.398;2023-03-01T01:11:26;32.90;;;31.57;;
20896;SDS011;10608;42.600;23.398;2023-03-01T01:13:51;39.93;;;38.27;;
20896;SDS011;10608;42.600;23.398;2023-03-01T01:16:17;40.47;;;38.80;;
20896;SDS011;10608;42.600;23.398;2023-03-01T01:18:43;49.07;;;47.00;;
20896;SDS011;10608;42.600;23.398;2023-03-01T01:21:12;42.57;;;40.80;;
20896;SDS011;10608;42.600;23.398;2023-03-01T01:23:38;36.30;;;34.80;;
20896;SDS011;10608;42.600;23.398;2023-03-01T01:26:04;35.47;;;34.03;;
20896;SDS011;10608;42.600;23.398;2023-03-01T01:28:30;34.83;;;33.40;;
20896;SDS011;10608;42.600;23.398;2023-03-01T01:30:55;37.97;;;36.43;;
20896;SDS011;10608;42.600;23.398;2023-03-01T01:33:20;32.23;;;30.97;;
20896;SDS011;10608;42.600;23.398;2023-03-01T01:35:46;41.00;;;39.30;;
20896;SDS011;10608;42.600;23.398;2023-03-01T01:38:11;35.03;;;33.60;;
20896;SDS011;10608;42.600;23.398;2023-03-01T01:40:42;34.57;;;33.17;;
20896;SDS011;10608;42.600;23.398;2023-03-01T01:43:11;34.47;;;33.07;;
20896;SDS011;10608;42.600;23.398;2023-03-01T01:45:41;32.17;;;30.87;;
20896;SDS011;10608;42.600;23.398;2023-03-01T01:48:07;31.23;;;29.97;;
20896;SDS011;10608;42.600;23.398;2023-03-01T01:50:35;31.10;;;29.90;;
20896;SDS011;10608;42.600;23.398;2023-03-01T01:53:07;31.30;;;30.03;;
20896;SDS011;10608;42.600;23.398;2023-03-01T01:55:33;31.47;;;30.20;;
20896;SDS011;10608;42.600;23.398;2023-03-01T01:58:02;32.40;;;31.07;;
20896;SDS011;10608;42.600;23.398;2023-03-01T02:00:28;29.63;;;28.47;;
20896;SDS011;10608;42.600;23.398;2023-03-01T02:03:15;28.80;;;27.67;;
20896;SDS011;10608;42.600;23.398;2023-03-01T02:08:26;24.53;;;23.57;;
20896;SDS011;10608;42.600;23.398;2023-03-01T02:10:52;33.20;;;31.87;;
20896;SDS011;10608;42.600;23.398;2023-03-01T02:13:19;27.80;;;26.70;;
20896;SDS011;10608;42.600;23.398;2023-03-01T02:15:44;28.30;;;27.20;;
20896;SDS011;10608;42.600;23.398;2023-03-01T02:18:10;25.97;;;24.97;;
20896;SDS011;10608;42.600;23.398;2023-03-01T02:20:43;26.50;;;25.43;;
20896;SDS011;10608;42.600;23.398;2023-03-01T02:23:10;25.50;;;24.50;;
20896;SDS011;10608;42.600;23.398;2023-03-01T02:25:38;36.03;;;34.53;;
20896;SDS011;10608;42.600;23.398;2023-03-01T02:30:33;37.93;;;36.33;;
20896;SDS011;10608;42.600;23.398;2023-03-01T02:32:58;29.20;;;28.03;;
20896;SDS011;10608;42.600;23.398;2023-03-01T02:35:27;32.37;;;31.07;;
20896;SDS011;10608;42.600;23.398;2023-03-01T02:37:54;32.50;;;31.20;;
20896;SDS011;10608;42.600;23.398;2023-03-01T02:40:22;33.33;;;32.00;;
20896;SDS011;10608;42.600;23.398;2023-03-01T02:42:51;34.37;;;32.93;;
20896;SDS011;10608;42.600;23.398;2023-03-01T02:45:18;29.10;;;27.47;;
20896;SDS011;10608;42.600;23.398;2023-03-01T02:47:44;31.00;;;29.77;;
20896;SDS011;10608;42.600;23.398;2023-03-01T02:50:15;29.57;;;28.37;;
20896;SDS011;10608;42.600;23.398;2023-03-01T02:52:47;30.20;;;28.97;;
20896;SDS011;10608;42.600;23.398;2023-03-01T02:55:18;32.77;;;31.47;;
20896;SDS011;10608;42.600;23.398;2023-03-01T02:57:44;27.33;;;26.23;;
20896;SDS011;10608;42.600;23.398;2023-03-01T03:00:11;29.17;;;27.97;;
20896;SDS011;10608;42.600;23.398;2023-03-01T03:02:43;27.90;;;26.80;;
20896;SDS011;10608;42.600;23.398;2023-03-01T03:05:10;25.20;;;24.20;;
20896;SDS011;10608;42.600;23.398;2023-03-01T03:07:37;25.13;;;24.13;;
20896;SDS011;10608;42.600;23.398;2023-03-01T03:10:03;24.40;;;23.40;;
20896;SDS011;10608;42.600;23.398;2023-03-01T03:12:28;25.27;;;24.17;;
20896;SDS011;10608;42.600;23.398;2023-03-01T03:14:53;25.53;;;24.53;;
20896;SDS011;10608;42.600;23.398;2023-03-01T03:17:19;25.80;;;24.80;;
20896;SDS011;10608;42.600;23.398;2023-03-01T03:19:44;25.63;;;24.63;;
20896;SDS011;10608;42.600;23.398;2023-03-01T03:22:11;22.87;;;21.97;;
20896;SDS011;10608;42.600;23.398;2023-03-01T03:24:36;24.67;;;23.67;;
20896;SDS011;10608;42.600;23.398;2023-03-01T03:27:03;23.20;;;22.30;;
20896;SDS011;10608;42.600;23.398;2023-03-01T03:29:28;26.93;;;25.83;;
20896;SDS011;10608;42.600;23.398;2023-03-01T03:31:53;24.90;;;23.77;;
20896;SDS011;10608;42.600;23.398;2023-03-01T03:34:19;27.93;;;26.73;;
20896;SDS011;10608;42.600;23.398;2023-03-01T03:36:44;27.37;;;26.27;;
20896;SDS011;10608;42.600;23.398;2023-03-01T03:39:09;31.27;;;29.23;;
20896;SDS011;10608;42.600;23.398;2023-03-01T03:41:34;25.07;;;24.07;;
20896;SDS011;10608;42.600;23.398;2023-03-01T03:44:00;31.40;;;30.13;;
20896;SDS011;10608;42.600;23.398;2023-03-01T03:46:25;26.67;;;25.57;;
20896;SDS011;10608;42.600;23.398;2023-03-01T03:48:51;31.27;;;30.03;;
20896;SDS011;10608;42.600;23.398;2023-03-01T03:51:16;36.17;;;34.63;;
20896;SDS011;10608;42.600;23.398;2023-03-01T03:53:42;38.80;;;37.20;;
20896;SDS011;10608;42.600;23.398;2023-03-01T03:56:08;31.73;;;30.43;;
20896;SDS011;10608;42.600;23.398;2023-03-01T03:58:33;40.00;;;38.33;;
20896;SDS011;10608;42.600;23.398;2023-03-01T04:00:58;36.53;;;35.03;;
20896;SDS011;10608;42.600;23.398;2023-03-01T04:03:25;34.37;;;32.93;;
20896;SDS011;10608;42.600;23.398;2023-03-01T04:05:51;31.53;;;30.23;;
20896;SDS011;10608;42.600;23.398;2023-03-01T04:08:17;30.63;;;29.43;;
20896;SDS011;10608;42.600;23.398;2023-03-01T04:10:45;30.10;;;28.90;;
20896;SDS011;10608;42.600;23.398;2023-03-01T04:13:13;28.83;;;27.70;;
20896;SDS011;10608;42.600;23.398;2023-03-01T04:15:39;31.80;;;30.50;;
20896;SDS011;10608;42.600;23.398;2023-03-01T04:18:04;35.40;;;33.93;;
20896;SDS011;10608;42.600;23.398;2023-03-01T04:20:31;33.93;;;32.53;;
20896;SDS011;10608;42.600;23.398;2023-03-01T04:23:02;29.37;;;28.17;;
20896;SDS011;10608;42.600;23.398;2023-03-01T04:25:53;29.90;;;28.70;;
20896;SDS011;10608;42.600;23.398;2023-03-01T04:28:20;30.57;;;29.33;;
20896;SDS011;10608;42.600;23.398;2023-03-01T04:30:46;28.47;;;27.33;;
20896;SDS011;10608;42.600;23.398;2023-03-01T04:33:11;36.47;;;34.97;;
20896;SDS011;10608;42.600;23.398;2023-03-01T04:35:36;35.43;;;34.00;;
20896;SDS011;10608;42.600;23.398;2023-03-01T04:38:02;33.10;;;31.70;;
20896;SDS011;10608;42.600;23.398;2023-03-01T04:40:27;30.77;;;29.57;;
20896;SDS011;10608;42.600;23.398;2023-03-01T04:42:52;31.77;;;30.47;;
20896;SDS011;10608;42.600;23.398;2023-03-01T04:45:18;33.33;;;31.93;;
20896;SDS011;10608;42.600;23.398;2023-03-01T04:47:43;43.03;;;41.23;;
20896;SDS011;10608;42.600;23.398;2023-03-01T04:50:10;42.80;;;41.00;;
20896;SDS011;10608;42.600;23.398;2023-03-01T04:52:35;60.57;;;58.00;;
20896;SDS011;10608;42.600;23.398;2023-03-01T04:55:01;56.73;;;54.20;;
20896;SDS011;10608;42.600;23.398;2023-03-01T04:57:26;59.23;;;56.77;;
20896;SDS011;10608;42.600;23.398;2023-03-01T04:59:51;57.27;;;54.90;;
20896;SDS011;10608;42.600;23.398;2023-03-01T05:02:17;53.30;;;51.10;;
20896;SDS011;10608;42.600;23.398;2023-03-01T05:04:42;45.43;;;43.57;;
20896;SDS011;10608;42.600;23.398;2023-03-01T05:07:07;51.90;;;49.73;;
20896;SDS011;10608;42.600;23.398;2023-03-01T05:09:32;32.63;;;31.30;;
20896;SDS011;10608;42.600;23.398;2023-03-01T05:11:57;30.30;;;29.03;;
20896;SDS011;10608;42.600;23.398;2023-03-01T05:14:23;25.93;;;24.90;;
20896;SDS011;10608;42.600;23.398;2023-03-01T05:16:48;31.57;;;30.27;;
20896;SDS011;10608;42.600;23.398;2023-03-01T05:19:13;51.80;;;49.57;;
20896;SDS011;10608;42.600;23.398;2023-03-01T05:21:41;40.77;;;39.07;;
20896;SDS011;10608;42.600;23.398;2023-03-01T05:24:26;42.23;;;40.50;;
20896;SDS011;10608;42.600;23.398;2023-03-01T05:26:51;42.30;;;40.50;;
20896;SDS011;10608;42.600;23.398;2023-03-01T05:29:17;45.30;;;43.40;;
20896;SDS011;10608;42.600;23.398;2023-03-01T05:31:42;59.30;;;56.80;;
20896;SDS011;10608;42.600;23.398;2023-03-01T05:34:08;67.33;;;64.50;;
20896;SDS011;10608;42.600;23.398;2023-03-01T05:36:33;77.13;;;73.93;;
20896;SDS011;10608;42.600;23.398;2023-03-01T05:38:59;60.40;;;57.90;;
20896;SDS011;10608;42.600;23.398;2023-03-01T05:41:24;69.37;;;66.47;;
20896;SDS011;10608;42.600;23.398;2023-03-01T05:43:50;57.57;;;55.17;;
20896;SDS011;10608;42.600;23.398;2023-03-01T05:46:15;60.60;;;58.00;;
20896;SDS011;10608;42.600;23.398;2023-03-01T05:48:40;61.77;;;59.17;;
20896;SDS011;10608;42.600;23.398;2023-03-01T05:51:05;58.77;;;56.27;;
20896;SDS011;10608;42.600;23.398;2023-03-01T05:53:31;58.77;;;56.27;;
20896;SDS011;10608;42.600;23.398;2023-03-01T05:55:56;55.97;;;53.63;;
20896;SDS011;10608;42.600;23.398;2023-03-01T05:58:21;63.43;;;60.70;;
20896;SDS011;10608;42.600;23.398;2023-03-01T06:00:47;49.80;;;47.73;;
20896;SDS011;10608;42.600;23.398;2023-03-01T06:03:14;45.50;;;43.60;;
20896;SDS011;10608;42.600;23.398;2023-03-01T06:05:40;55.73;;;53.40;;
20896;SDS011;10608;42.600;23.398;2023-03-01T06:08:05;51.67;;;49.53;;
20896;SDS011;10608;42.600;23.398;2023-03-01T06:10:30;44.70;;;42.90;;
20896;SDS011;10608;42.600;23.398;2023-03-01T06:12:56;38.60;;;37.00;;
20896;SDS011;10608;42.600;23.398;2023-03-01T06:15:21;40.67;;;38.97;;
20896;SDS011;10608;42.600;23.398;2023-03-01T06:17:47;44.93;;;43.07;;
20896;SDS011;10608;42.600;23.398;2023-03-01T06:20:19;56.90;;;54.47;;
20896;SDS011;10608;42.600;23.398;2023-03-01T06:22:44;43.67;;;41.63;;
20896;SDS011;10608;42.600;23.398;2023-03-01T06:25:10;40.10;;;37.67;;
20896;SDS011;10608;42.600;23.398;2023-03-01T06:27:37;40.00;;;38.40;;
20896;SDS011;10608;42.600;23.398;2023-03-01T06:30:02;43.97;;;42.07;;
20896;SDS011;10608;42.600;23.398;2023-03-01T06:32:28;35.10;;;33.70;;
20896;SDS011;10608;42.600;23.398;2023-03-01T06:34:53;42.47;;;40.67;;
20896;SDS011;10608;42.600;23.398;2023-03-01T06:37:18;60.40;;;57.80;;
20896;SDS011;10608;42.600;23.398;2023-03-01T06:39:44;45.20;;;43.37;;
20896;SDS011;10608;42.600;23.398;2023-03-01T06:42:09;55.37;;;53.07;;
20896;SDS011;10608;42.600;23.398;2023-03-01T06:44:37;61.43;;;58.87;;
20896;SDS011;10608;42.600;23.398;2023-03-01T06:47:03;69.07;;;66.17;;
20896;SDS011;10608;42.600;23.398;2023-03-01T06:49:28;48.13;;;46.13;;
20896;SDS011;10608;42.600;23.398;2023-03-01T06:51:53;47.33;;;45.33;;
20896;SDS011;10608;42.600;23.398;2023-03-01T06:54:19;45.60;;;43.70;;
20896;SDS011;10608;42.600;23.398;2023-03-01T06:56:47;40.87;;;39.17;;
20896;SDS011;10608;42.600;23.398;2023-03-01T06:59:12;35.57;;;34.10;;
20896;SDS011;10608;42.600;23.398;2023-03-01T07:01:38;43.97;;;42.13;;
20896;SDS011;10608;42.600;23.398;2023-03-01T07:04:04;38.73;;;37.07;;
20896;SDS011;10608;42.600;23.398;2023-03-01T07:06:29;39.17;;;37.53;;
20896;SDS011;10608;42.600;23.398;2023-03-01T07:08:54;46.43;;;44.43;;
20896;SDS011;10608;42.600;23.398;2023-03-01T07:11:19;47.43;;;45.50;;
20896;SDS011;10608;42.600;23.398;2023-03-01T07:13:45;47.10;;;45.13;;
20896;SDS011;10608;42.600;23.398;2023-03-01T07:16:10;41.73;;;39.80;;
20896;SDS011;10608;42.600;23.398;2023-03-01T07:18:35;31.03;;;29.77;;
20896;SDS011;10608;42.600;23.398;2023-03-01T07:21:04;37.60;;;36.03;;
20896;SDS011;10608;42.600;23.398;2023-03-01T07:23:30;39.30;;;37.70;;
20896;SDS011;10608;42.600;23.398;2023-03-01T07:25:55;43.87;;;42.03;;
20896;SDS011;10608;42.600;23.398;2023-03-01T07:28:22;29.10;;;27.93;;
20896;SDS011;10608;42.600;23.398;2023-03-01T07:30:48;39.07;;;37.47;;
20896;SDS011;10608;42.600;23.398;2023-03-01T07:33:13;84.10;;;80.50;;
20896;SDS011;10608;42.600;23.398;2023-03-01T07:35:38;69.87;;;66.80;;
20896;SDS011;10608;42.600;23.398;2023-03-01T07:38:03;38.83;;;37.23;;
20896;SDS011;10608;42.600;23.398;2023-03-01T07:40:28;43.33;;;41.53;;
20896;SDS011;10608;42.600;23.398;2023-03-01T07:42:57;45.47;;;43.57;;
20896;SDS011;10608;42.600;23.398;2023-03-01T07:45:23;47.13;;;45.17;;
20896;SDS011;10608;42.600;23.398;2023-03-01T07:47:49;47.60;;;45.63;;
20896;SDS011;10608;42.600;23.398;2023-03-01T07:50:15;48.47;;;46.43;;
20896;SDS011;10608;42.600;23.398;2023-03-01T07:52:40;48.97;;;46.90;;
20896;SDS011;10608;42.600;23.398;2023-03-01T07:55:05;42.07;;;40.27;;
20896;SDS011;10608;42.600;23.398;2023-03-01T07:57:31;41.23;;;39.53;;
20896;SDS011;10608;42.600;23.398;2023-03-01T07:59:56;31.07;;;29.80;;
20896;SDS011;10608;42.600;23.398;2023-03-01T08:02:21;47.07;;;45.07;;
20896;SDS011;10608;42.600;23.398;2023-03-01T08:04:47;27.10;;;26.00;;
20896;SDS011;10608;42.600;23.398;2023-03-01T08:07:12;24.33;;;23.33;;
20896;SDS011;10608;42.600;23.398;2023-03-01T08:09:37;37.23;;;35.43;;
20896;SDS011;10608;42.600;23.398;2023-03-01T08:12:03;26.13;;;25.03;;
20896;SDS011;10608;42.600;23.398;2023-03-01T08:14:29;29.10;;;27.90;;
20896;SDS011;10608;42.600;23.398;2023-03-01T08:16:55;22.03;;;21.13;;
20896;SDS011;10608;42.600;23.398;2023-03-01T08:19:20;26.40;;;25.33;;
20896;SDS011;10608;42.600;23.398;2023-03-01T08:21:45;29.87;;;28.67;;
20896;SDS011;10608;42.600;23.398;2023-03-01T08:24:10;32.03;;;30.73;;
20896;SDS011;10608;42.600;23.398;2023-03-01T08:26:36;37.97;;;36.37;;
20896;SDS011;10608;42.600;23.398;2023-03-01T08:29:02;30.43;;;29.10;;
20896;SDS011;10608;42.600;23.398;2023-03-01T08:31:32;31.93;;;30.63;;
20896;SDS011;10608;42.600;23.398;2023-03-01T08:33:58;35.50;;;34.07;;
20896;SDS011;10608;42.600;23.398;2023-03-01T08:36:25;36.03;;;34.53;;
20896;SDS011;10608;42.600;23.398;2023-03-01T08:38:50;32.27;;;30.97;;
20896;SDS011;10608;42.600;23.398;2023-03-01T08:41:16;31.87;;;30.57;;
20896;SDS011;10608;42.600;23.398;2023-03-01T08:43:41;34.80;;;33.40;;
20896;SDS011;10608;42.600;23.398;2023-03-01T08:46:06;65.07;;;62.27;;
20896;SDS011;10608;42.600;23.398;2023-03-01T08:48:32;46.23;;;44.33;;
20896;SDS011;10608;42.600;23.398;2023-03-01T08:51:06;49.57;;;47.40;;
20896;SDS011;10608;42.600;23.398;2023-03-01T08:53:31;33.53;;;32.03;;
20896;SDS011;10608;42.600;23.398;2023-03-01T08:55:59;32.70;;;31.37;;
20896;SDS011;10608;42.600;23.398;2023-03-01T08:58:24;45.57;;;43.63;;
20896;SDS011;10608;42.600;23.398;2023-03-01T09:00:49;32.37;;;31.07;;
20896;SDS011;10608;42.600;23.398;2023-03-01T09:03:15;32.63;;;31.30;;
20896;SDS011;10608;42.600;23.398;2023-03-01T09:05:40;36.80;;;35.27;;
20896;SDS011;10608;42.600;23.398;2023-03-01T09:08:05;22.27;;;21.33;;
20896;SDS011;10608;42.600;23.398;2023-03-01T09:10:30;27.40;;;26.30;;
20896;SDS011;10608;42.600;23.398;2023-03-01T09:12:55;33.20;;;31.83;;
20896;SDS011;10608;42.600;23.398;2023-03-01T09:15:21;31.03;;;29.80;;
20896;SDS011;10608;42.600;23.398;2023-03-01T09:17:46;36.57;;;35.00;;
20896;SDS011;10608;42.600;23.398;2023-03-01T09:20:11;26.57;;;25.50;;
20896;SDS011;10608;42.600;23.398;2023-03-01T09:22:37;29.17;;;27.97;;
20896;SDS011;10608;42.600;23.398;2023-03-01T09:25:02;31.17;;;29.80;;
20896;SDS011;10608;42.600;23.398;2023-03-01T09:27:27;34.90;;;33.47;;
20896;SDS011;10608;42.600;23.398;2023-03-01T09:29:52;37.23;;;35.73;;
20896;SDS011;10608;42.600;23.398;2023-03-01T09:32:18;33.97;;;32.57;;
20896;SDS011;10608;42.600;23.398;2023-03-01T09:34:43;34.17;;;32.77;;
20896;SDS011;10608;42.600;23.398;2023-03-01T09:37:29;35.53;;;34.03;;
20896;SDS011;10608;42.600;23.398;2023-03-01T09:39:54;29.87;;;28.57;;
20896;SDS011;10608;42.600;23.398;2023-03-01T09:42:20;29.77;;;28.57;;
20896;SDS011;10608;42.600;23.398;2023-03-01T09:47:32;26.60;;;25.53;;
20896;SDS011;10608;42.600;23.398;2023-03-01T09:50:12;22.73;;;21.87;;
20896;SDS011;10608;42.600;23.398;2023-03-01T09:55:16;26.23;;;25.13;;
20896;SDS011;10608;42.600;23.398;2023-03-01T09:57:50;25.00;;;24.00;;
20896;SDS011;10608;42.600;23.398;2023-03-01T10:02:55;24.37;;;23.40;;
20896;SDS011;10608;42.600;23.398;2023-03-01T10:05:35;25.10;;;24.07;;
20896;SDS011;10608;42.600;23.398;2023-03-01T10:10:36;21.60;;;20.73;;
20896;SDS011;10608;42.600;23.398;2023-03-01T10:13:04;25.07;;;24.07;;
20896;SDS011;10608;42.600;23.398;2023-03-01T10:15:34;30.67;;;29.43;;
20896;SDS011;10608;42.600;23.398;2023-03-01T10:18:01;31.23;;;30.00;;
20896;SDS011;10608;42.600;23.398;2023-03-01T10:20:51;29.97;;;28.77;;
20896;SDS011;10608;42.600;23.398;2023-03-01T10:23:17;32.10;;;30.80;;
20896;SDS011;10608;42.600;23.398;2023-03-01T10:28:17;21.17;;;20.37;;
20896;SDS011;10608;42.600;23.398;2023-03-01T10:30:44;25.40;;;24.40;;
20896;SDS011;10608;42.600;23.398;2023-03-01T10:33:26;27.60;;;26.50;;
20896;SDS011;10608;42.600;23.398;2023-03-01T10:35:52;42.07;;;40.17;;
20896;SDS011;10608;42.600;23.398;2023-03-01T10:38:18;50.63;;;48.53;;
20896;SDS011;10608;42.600;23.398;2023-03-01T10:41:04;85.87;;;81.93;;
20896;SDS011;10608;42.600;23.398;2023-03-01T10:43:46;50.23;;;48.13;;
20896;SDS011;10608;42.600;23.398;2023-03-01T10:46:28;44.40;;;42.50;;
20896;SDS011;10608;42.600;23.398;2023-03-01T10:51:30;31.43;;;30.13;;
20896;SDS011;10608;42.600;23.398;2023-03-01T10:53:56;65.17;;;62.17;;
20896;SDS011;10608;42.600;23.398;2023-03-01T10:56:21;44.30;;;42.43;;
20896;SDS011;10608;42.600;23.398;2023-03-01T10:59:05;45.80;;;43.90;;
20896;SDS011;10608;42.600;23.398;2023-03-01T11:01:31;54.37;;;52.07;;
20896;SDS011;10608;42.600;23.398;2023-03-01T11:06:32;25.30;;;24.30;;
20896;SDS011;10608;42.600;23.398;2023-03-01T11:09:01;38.20;;;36.00;;
20896;SDS011;10608;42.600;23.398;2023-03-01T11:11:37;53.83;;;51.43;;
20896;SDS011;10608;42.600;23.398;2023-03-01T11:14:06;42.13;;;40.40;;
20896;SDS011;10608;42.600;23.398;2023-03-01T11:16:35;45.93;;;44.03;;
20896;SDS011;10608;42.600;23.398;2023-03-01T11:19:13;43.67;;;41.80;;
20896;SDS011;10608;42.600;23.398;2023-03-01T11:24:29;23.50;;;22.50;;
20896;SDS011;10608;42.600;23.398;2023-03-01T11:26:55;108.20;;;103.47;;
20896;SDS011;10608;42.600;23.398;2023-03-01T11:29:29;70.07;;;67.13;;
20896;SDS011;10608;42.600;23.398;2023-03-01T11:31:57;65.60;;;62.90;;
20896;SDS011;10608;42.600;23.398;2023-03-01T11:34:28;59.67;;;57.13;;
20896;SDS011;10608;42.600;23.398;2023-03-01T11:36:58;71.53;;;68.30;;
20896;SDS011;10608;42.600;23.398;2023-03-01T11:42:15;49.23;;;47.20;;
20896;SDS011;10608;42.600;23.398;2023-03-01T11:44:43;31.57;;;30.30;;
20896;SDS011;10608;42.600;23.398;2023-03-01T12:08:21;30.03;;;28.83;;
20896;SDS011;10608;42.600;23.398;2023-03-01T12:10:54;25.03;;;24.03;;
20896;SDS011;10608;42.600;23.398;2023-03-01T12:26:31;40.13;;;38.43;;
20896;SDS011;10608;42.600;23.398;2023-03-01T12:31:44;32.73;;;31.33;;
20896;SDS011;10608;42.600;23.398;2023-03-01T12:50:00;23.07;;;22.17;;
20896;SDS011;10608;42.600;23.398;2023-03-01T12:57:57;33.93;;;32.53;;
20896;SDS011;10608;42.600;23.398;2023-03-01T13:08:01;20.40;;;19.57;;
20896;SDS011;10608;42.600;23.398;2023-03-01T13:10:35;19.10;;;18.33;;
20896;SDS011;10608;42.600;23.398;2023-03-01T13:15:37;27.10;;;26.00;;
20896;SDS011;10608;42.600;23.398;2023-03-01T13:18:03;25.53;;;24.53;;
20896;SDS011;10608;42.600;23.398;2023-03-01T13:20:34;24.33;;;23.30;;
20896;SDS011;10608;42.600;23.398;2023-03-01T13:23:04;30.40;;;29.03;;
20896;SDS011;10608;42.600;23.398;2023-03-01T13:25:31;22.57;;;21.67;;
20896;SDS011;10608;42.600;23.398;2023-03-01T13:30:41;23.37;;;22.47;;
20896;SDS011;10608;42.600;23.398;2023-03-01T13:35:50;22.27;;;21.37;;
20896;SDS011;10608;42.600;23.398;2023-03-01T13:41:11;20.40;;;19.57;;
20896;SDS011;10608;42.600;23.398;2023-03-01T13:43:38;29.03;;;27.83;;
20896;SDS011;10608;42.600;23.398;2023-03-01T13:46:09;31.40;;;30.03;;
20896;SDS011;10608;42.600;23.398;2023-03-01T13:48:36;21.57;;;20.77;;
20896;SDS011;10608;42.600;23.398;2023-03-01T13:51:03;23.53;;;22.60;;
20896;SDS011;10608;42.600;23.398;2023-03-01T13:53:29;17.57;;;16.87;;
20896;SDS011;10608;42.600;23.398;2023-03-01T13:56:07;80.20;;;76.67;;
20896;SDS011;10608;42.600;23.398;2023-03-01T13:58:33;28.63;;;27.53;;
20896;SDS011;10608;42.600;23.398;2023-03-01T14:01:18;38.33;;;36.73;;
20896;SDS011;10608;42.600;23.398;2023-03-01T14:03:45;20.43;;;19.60;;
20896;SDS011;10608;42.600;23.398;2023-03-01T14:06:14;23.17;;;22.27;;
20896;SDS011;10608;42.600;23.398;2023-03-01T14:08:40;20.30;;;19.50;;
20896;SDS011;10608;42.600;23.398;2023-03-01T14:16:24;26.77;;;25.67;;
20896;SDS011;10608;42.600;23.398;2023-03-01T14:19:15;19.63;;;18.83;;
20896;SDS011;10608;42.600;23.398;2023-03-01T14:21:38;19.77;;;18.97;;
20896;SDS011;10608;42.600;23.398;2023-03-01T14:24:03;18.70;;;17.97;;
20896;SDS011;10608;42.600;23.398;2023-03-01T14:26:28;20.57;;;19.73;;
20896;SDS011;10608;42.600;23.398;2023-03-01T14:28:55;26.37;;;25.30;;
20896;SDS011;10608;42.600;23.398;2023-03-01T14:33:55;21.53;;;20.57;;
20896;SDS011;10608;42.600;23.398;2023-03-01T14:36:25;20.63;;;19.83;;
20896;SDS011;10608;42.600;23.398;2023-03-01T14:38:51;21.17;;;20.27;;
20896;SDS011;10608;42.600;23.398;2023-03-01T14:41:23;24.63;;;23.63;;
20896;SDS011;10608;42.600;23.398;2023-03-01T14:43:53;23.23;;;22.33;;
20896;SDS011;10608;42.600;23.398;2023-03-01T14:48:48;30.10;;;28.80;;
20896;SDS011;10608;42.600;23.398;2023-03-01T14:51:14;38.10;;;36.50;;
20896;SDS011;10608;42.600;23.398;2023-03-01T14:53:39;38.63;;;37.03;;
20896;SDS011;10608;42.600;23.398;2023-03-01T14:56:04;31.47;;;30.20;;
20896;SDS011;10608;42.600;23.398;2023-03-01T14:58:31;29.73;;;28.53;;
20896;SDS011;10608;42.600;23.398;2023-03-01T15:00:58;39.40;;;37.77;;
20896;SDS011;10608;42.600;23.398;2023-03-01T15:03:25;33.53;;;32.13;;
20896;SDS011;10608;42.600;23.398;2023-03-01T15:05:51;33.90;;;32.50;;
20896;SDS011;10608;42.600;23.398;2023-03-01T15:08:18;25.10;;;24.10;;
20896;SDS011;10608;42.600;23.398;2023-03-01T15:10:55;21.87;;;20.97;;
20896;SDS011;10608;42.600;23.398;2023-03-01T15:13:24;22.10;;;21.20;;
20896;SDS011;10608;42.600;23.398;2023-03-01T15:15:50;26.03;;;24.93;;
20896;SDS011;10608;42.600;23.398;2023-03-01T15:20:41;43.97;;;42.17;;
20896;SDS011;10608;42.600;23.398;2023-03-01T15:23:12;47.70;;;45.70;;
20896;SDS011;10608;42.600;23.398;2023-03-01T15:25:43;45.20;;;43.30;;
20896;SDS011;10608;42.600;23.398;2023-03-01T15:28:12;44.27;;;42.47;;
20896;SDS011;10608;42.600;23.398;2023-03-01T15:30:42;55.77;;;53.47;;
20896;SDS011;10608;42.600;23.398;2023-03-01T15:35:46;35.47;;;33.97;;
20896;SDS011;10608;42.600;23.398;2023-03-01T15:40:50;35.43;;;33.93;;
20896;SDS011;10608;42.600;23.398;2023-03-01T15:46:15;20.30;;;19.43;;
20896;SDS011;10608;42.600;23.398;2023-03-01T15:48:45;24.80;;;23.60;;
20896;SDS011;10608;42.600;23.398;2023-03-01T15:51:11;34.37;;;32.97;;
20896;SDS011;10608;42.600;23.398;2023-03-01T15:53:37;30.77;;;29.50;;
20896;SDS011;10608;42.600;23.398;2023-03-01T15:56:03;28.70;;;27.53;;
20896;SDS011;10608;42.600;23.398;2023-03-01T15:58:28;30.40;;;29.13;;
20896;SDS011;10608;42.600;23.398;2023-03-01T16:00:53;25.17;;;24.17;;
20896;SDS011;10608;42.600;23.398;2023-03-01T16:03:21;21.43;;;20.53;;
20896;SDS011;10608;42.600;23.398;2023-03-01T16:05:48;25.10;;;24.13;;
20896;SDS011;10608;42.600;23.398;2023-03-01T16:08:13;17.53;;;16.83;;
20896;SDS011;10608;42.600;23.398;2023-03-01T16:10:38;19.67;;;18.87;;
20896;SDS011;10608;42.600;23.398;2023-03-01T16:13:04;19.53;;;18.73;;
20896;SDS011;10608;42.600;23.398;2023-03-01T16:15:31;20.60;;;19.80;;